Time;durP1;ratioP1;P1;durP2;ratioP2;P2;SDS_P1;SDS_P2;PMS_P1;PMS_P2;Temp;Humidity;BMP_temperature;BMP_pressure;BME280_temperature;BME280_humidity;BME280_pressure;Samples;Min_cycle;Max_cycle;Signal;HPM_P1;HPM_P2
2023/03/08 00:01:36;;;;;;;10.00;3.90;;;;;;;-144.87;100.00;61487.56;4978217;28;20081;-81
2023/03/08 00:04:02;;;;;;;9.25;4.30;;;;;;;-144.87;100.00;61487.56;4979423;28;20042;-82
2023/03/08 00:06:29;;;;;;;7.72;3.92;;;;;;;-144.87;100.00;61487.56;4999041;28;20458;-81
2023/03/08 00:08:59;;;;;;;9.25;3.40;;;;;;;-144.87;100.00;61487.56;4979855;28;20058;-82
2023/03/08 00:11:27;;;;;;;7.35;3.80;;;;;;;-144.87;100.00;61487.56;4967524;28;20038;-81
2023/03/08 00:13:54;;;;;;;9.48;4.03;;;;;;;-144.87;100.00;61487.56;4980303;28;20064;-81
2023/03/08 00:16:20;;;;;;;10.20;4.13;;;;;;;-144.87;100.00;61487.56;4960328;28;20063;-81
2023/03/08 00:18:47;;;;;;;11.13;4.40;;;;;;;-144.87;100.00;61487.56;4966727;28;20464;-81
2023/03/08 00:21:15;;;;;;;10.50;3.63;;;;;;;-144.87;100.00;61487.56;4968577;28;20425;-81
2023/03/08 00:23:42;;;;;;;9.13;3.72;;;;;;;-144.87;100.00;61487.56;4978999;28;20038;-81
2023/03/08 00:26:09;;;;;;;9.18;4.05;;;;;;;-144.87;100.00;61487.56;4971787;28;20385;-81
2023/03/08 00:28:36;;;;;;;16.75;4.97;;;;;;;-144.87;100.00;61487.56;4978785;28;20066;-80
2023/03/08 00:31:05;;;;;;;10.93;3.83;;;;;;;-144.87;100.00;61487.56;4979478;28;20385;-81
2023/03/08 00:33:31;;;;;;;5.57;3.67;;;;;;;-144.87;100.00;61487.56;4974053;28;20121;-81
2023/03/08 00:36:05;;;;;;;8.40;4.22;;;;;;;-144.87;100.00;61487.56;4969306;28;20038;-80
2023/03/08 00:38:35;;;;;;;10.13;3.70;;;;;;;-144.87;100.00;61487.56;4972231;28;20090;-81
2023/03/08 00:41:02;;;;;;;10.85;3.88;;;;;;;-144.87;100.00;61487.56;4973099;28;20401;-81
2023/03/08 00:43:28;;;;;;;9.73;4.00;;;;;;;-144.87;100.00;61487.56;4978746;28;20054;-80
2023/03/08 00:45:54;;;;;;;6.88;3.85;;;;;;;-144.87;100.00;61487.56;4970701;28;20515;-81
2023/03/08 00:48:22;;;;;;;15.30;4.72;;;;;;;-144.87;100.00;61487.56;4942683;28;20069;-80
2023/03/08 00:50:48;;;;;;;9.85;4.38;;;;;;;-144.87;100.00;61487.56;4977563;28;20038;-81
2023/03/08 00:53:14;;;;;;;11.73;4.60;;;;;;;-144.87;100.00;61487.56;4980179;28;20041;-80
2023/03/08 00:55:51;;;;;;;7.40;4.18;;;;;;;-144.87;100.00;61487.56;4979743;28;20444;-80
2023/03/08 00:58:18;;;;;;;9.63;4.10;;;;;;;-144.87;100.00;61487.56;4959627;28;20032;-80
2023/03/08 01:00:45;;;;;;;11.82;4.68;;;;;;;-144.87;100.00;61487.56;4964169;28;20428;-80
2023/03/08 01:03:12;;;;;;;13.70;5.45;;;;;;;-144.87;100.00;61487.56;4973125;28;20732;-80
2023/03/08 01:05:42;;;;;;;9.40;4.50;;;;;;;-144.87;100.00;61487.56;4975852;28;20097;-80
2023/03/08 01:08:09;;;;;;;14.00;5.20;;;;;;;-144.87;100.00;61487.56;4963931;28;20054;-81
2023/03/08 01:10:36;;;;;;;15.30;5.05;;;;;;;-144.87;100.00;61487.56;4955012;28;20093;-80
2023/03/08 01:13:03;;;;;;;10.05;4.60;;;;;;;-144.87;100.00;61487.56;4976437;28;20038;-80
2023/03/08 01:15:29;;;;;;;16.10;5.25;;;;;;;-144.87;100.00;61487.56;4958399;28;20034;-81
2023/03/08 01:17:56;;;;;;;9.38;4.70;;;;;;;-144.87;100.00;61487.56;4969864;28;20042;-80
2023/03/08 01:20:22;;;;;;;10.60;5.20;;;;;;;-144.87;100.00;61487.56;4974476;28;20047;-80
2023/03/08 01:22:48;;;;;;;8.30;5.28;;;;;;;-144.87;100.00;61487.56;4962288;28;20043;-81
2023/03/08 01:25:16;;;;;;;9.80;4.68;;;;;;;-144.87;100.00;61487.56;4977130;28;20039;-81
2023/03/08 01:27:42;;;;;;;14.45;5.15;;;;;;;-144.87;100.00;61487.56;4966588;28;20046;-80
2023/03/08 01:30:09;;;;;;;10.48;5.22;;;;;;;-144.87;100.00;61487.56;4975962;28;20034;-80
2023/03/08 01:32:36;;;;;;;11.30;5.57;;;;;;;-144.87;100.00;61487.56;4975465;28;20613;-80
2023/03/08 01:35:04;;;;;;;16.75;7.00;;;;;;;-144.87;100.00;61487.56;4976555;28;20073;-81
2023/03/08 01:37:33;;;;;;;14.82;7.55;;;;;;;-144.87;100.00;61487.56;4974661;28;20065;-80
2023/03/08 01:40:00;;;;;;;20.02;9.73;;;;;;;-144.87;100.00;61487.56;4967331;28;20263;-80
2023/03/08 01:42:27;;;;;;;19.70;11.50;;;;;;;-144.87;100.00;61487.56;4966584;28;20039;-80
2023/03/08 01:44:56;;;;;;;22.13;11.60;;;;;;;-144.87;100.00;61487.56;4977613;28;20051;-81
2023/03/08 01:47:28;;;;;;;25.45;13.77;;;;;;;-144.87;100.00;61487.56;4969976;28;20098;-81
2023/03/08 01:50:12;;;;;;;21.15;13.73;;;;;;;-144.87;100.00;61487.56;4965204;28;20125;-82
2023/03/08 01:52:47;;;;;;;24.50;14.43;;;;;;;-144.87;100.00;61487.56;4961564;28;20058;-82
2023/03/08 01:55:14;;;;;;;21.73;11.85;;;;;;;-144.87;100.00;61487.56;4979029;28;20126;-82
2023/03/08 01:57:50;;;;;;;21.00;13.25;;;;;;;-144.87;100.00;61487.56;4990154;28;20046;-82
2023/03/08 02:00:25;;;;;;;24.90;14.75;;;;;;;-144.87;100.00;61487.56;4962194;28;20039;-82
2023/03/08 02:03:04;;;;;;;27.30;16.35;;;;;;;-144.87;100.00;61487.56;4958794;28;20035;-80
2023/03/08 02:05:30;;;;;;;36.60;19.02;;;;;;;-144.87;100.00;61487.56;4963610;28;20077;-81
2023/03/08 02:08:04;;;;;;;29.92;18.17;;;;;;;-144.87;100.00;61487.56;4965068;28;20027;-81
2023/03/08 02:10:35;;;;;;;33.33;21.60;;;;;;;-144.87;100.00;61487.56;4980837;28;20077;-81
2023/03/08 02:13:03;;;;;;;42.88;19.58;;;;;;;-144.87;100.00;61487.56;4981858;28;20321;-80
2023/03/08 02:15:30;;;;;;;33.05;18.77;;;;;;;-144.87;100.00;61487.56;4970210;28;20064;-81
2023/03/08 02:17:57;;;;;;;26.17;18.80;;;;;;;-144.87;100.00;61487.56;4967533;28;20385;-81
2023/03/08 02:20:29;;;;;;;34.10;21.38;;;;;;;-144.87;100.00;61487.56;4968484;28;20042;-81
2023/03/08 02:23:05;;;;;;;38.15;22.42;;;;;;;-144.87;100.00;61487.56;4971587;28;20053;-80
2023/03/08 02:25:32;;;;;;;35.45;22.38;;;;;;;-144.87;100.00;61487.56;4952969;28;20407;-80
2023/03/08 02:27:59;;;;;;;39.63;24.95;;;;;;;-144.87;100.00;61487.56;4979040;28;20034;-81
2023/03/08 02:30:30;;;;;;;39.83;25.20;;;;;;;-144.87;100.00;61487.56;4976412;28;20106;-81
2023/03/08 02:32:57;;;;;;;39.40;23.85;;;;;;;-144.87;100.00;61487.56;4971819;28;20042;-81
2023/03/08 02:35:23;;;;;;;52.00;26.92;;;;;;;-144.87;100.00;61487.56;4972501;28;20057;-81
2023/03/08 02:37:49;;;;;;;36.05;20.67;;;;;;;-144.87;100.00;61487.56;4967609;28;20022;-81
2023/03/08 02:40:15;;;;;;;37.75;22.25;;;;;;;-144.87;100.00;61487.56;4991886;28;20483;-82
2023/03/08 02:42:42;;;;;;;46.30;26.52;;;;;;;-144.87;100.00;61487.56;4964723;28;20370;-81
2023/03/08 02:45:10;;;;;;;51.17;29.30;;;;;;;-144.87;100.00;61487.56;4993766;28;20054;-81
2023/03/08 02:47:36;;;;;;;59.55;31.80;;;;;;;-144.87;100.00;61487.56;4960846;28;20041;-81
2023/03/08 02:50:04;;;;;;;61.17;33.80;;;;;;;-144.87;100.00;61487.56;4960119;28;20031;-81
2023/03/08 02:52:30;;;;;;;56.00;33.83;;;;;;;-144.87;100.00;61487.56;4973419;28;20047;-81
2023/03/08 02:54:57;;;;;;;64.07;34.72;;;;;;;-144.87;100.00;61487.56;4970493;28;20122;-81
2023/03/08 02:57:25;;;;;;;64.57;34.60;;;;;;;-144.87;100.00;61487.56;4983722;28;20045;-81
2023/03/08 02:59:52;;;;;;;58.30;32.13;;;;;;;-144.87;100.00;61487.56;4971356;28;20031;-81
2023/03/08 03:02:19;;;;;;;59.67;32.33;;;;;;;-144.87;100.00;61487.56;4973845;28;20038;-80
2023/03/08 03:04:45;;;;;;;58.25;33.45;;;;;;;-144.87;100.00;61487.56;4956177;28;20089;-81
2023/03/08 03:07:12;;;;;;;61.63;34.67;;;;;;;-144.87;100.00;61487.56;4965806;28;20340;-81
2023/03/08 03:09:38;;;;;;;64.25;36.00;;;;;;;-144.87;100.00;61487.56;4966093;28;20042;-82
2023/03/08 03:12:05;;;;;;;66.35;36.58;;;;;;;-144.87;100.00;61487.56;4965770;28;20030;-81
2023/03/08 03:14:34;;;;;;;59.53;34.60;;;;;;;-144.87;100.00;61487.56;4966525;28;20034;-81
2023/03/08 03:17:00;;;;;;;61.25;36.15;;;;;;;-144.87;100.00;61487.56;4974020;28;20031;-81
2023/03/08 03:19:27;;;;;;;54.85;32.67;;;;;;;-144.87;100.00;61487.56;4964896;28;20038;-81
2023/03/08 03:21:53;;;;;;;65.20;34.13;;;;;;;-144.87;100.00;61487.56;4975470;28;20044;-81
2023/03/08 03:24:38;;;;;;;76.93;40.03;;;;;;;-144.87;100.00;61487.56;4964697;28;20070;-82
2023/03/08 03:27:06;;;;;;;73.75;38.33;;;;;;;-144.87;100.00;61487.56;4962403;28;20110;-81
2023/03/08 03:29:35;;;;;;;80.45;42.97;;;;;;;-144.87;100.00;61487.56;4965689;28;20116;-82
2023/03/08 03:32:11;;;;;;;77.75;42.80;;;;;;;-144.87;100.00;61487.56;4955453;28;20049;-81
2023/03/08 03:34:38;;;;;;;86.18;46.22;;;;;;;-144.87;100.00;61487.56;4967881;28;20425;-82
2023/03/08 03:37:04;;;;;;;75.00;45.00;;;;;;;-144.87;100.00;61487.56;4959230;28;20109;-81
2023/03/08 03:39:35;;;;;;;79.32;45.67;;;;;;;-144.87;100.00;61487.56;4958169;28;20034;-82
2023/03/08 03:42:02;;;;;;;77.70;44.13;;;;;;;-144.87;100.00;61487.56;4967509;28;20166;-82
2023/03/08 03:44:30;;;;;;;75.70;43.25;;;;;;;-144.87;100.00;61487.56;4964832;28;20474;-82
2023/03/08 03:46:57;;;;;;;70.40;40.97;;;;;;;-144.87;100.00;61487.56;4969068;28;20058;-82
2023/03/08 03:49:25;;;;;;;69.38;43.03;;;;;;;-144.87;100.00;61487.56;4963790;28;20133;-82
2023/03/08 03:51:52;;;;;;;83.25;45.45;;;;;;;-144.87;100.00;61487.56;4956176;28;20096;-82
2023/03/08 03:54:25;;;;;;;79.88;45.25;;;;;;;-144.87;100.00;61487.56;4969579;28;20528;-81
2023/03/08 03:56:57;;;;;;;71.82;41.83;;;;;;;-144.87;100.00;61487.56;4945076;28;20400;-82
2023/03/08 03:59:24;;;;;;;79.40;43.33;;;;;;;-144.87;100.00;61487.56;4977528;28;20031;-82
2023/03/08 04:01:51;;;;;;;70.50;42.90;;;;;;;-144.87;100.00;61487.56;4964915;28;20038;-81
2023/03/08 04:04:32;;;;;;;81.65;44.25;;;;;;;-144.87;100.00;61487.56;4966768;28;20130;-82
2023/03/08 04:06:59;;;;;;;73.75;43.70;;;;;;;-144.87;100.00;61487.56;4979697;28;20027;-82
2023/03/08 04:09:29;;;;;;;78.20;46.00;;;;;;;-144.87;100.00;61487.56;4973411;28;20831;-81
2023/03/08 04:12:05;;;;;;;79.43;44.85;;;;;;;-144.87;100.00;61487.56;4991791;28;20046;-82
2023/03/08 04:14:33;;;;;;;80.70;45.92;;;;;;;-144.87;100.00;61487.56;4965696;28;20045;-82
2023/03/08 04:17:00;;;;;;;84.97;46.70;;;;;;;-144.87;100.00;61487.56;4987234;28;20057;-81
2023/03/08 04:19:35;;;;;;;79.10;45.08;;;;;;;-144.87;100.00;61487.56;4979875;28;20129;-82
2023/03/08 04:22:02;;;;;;;76.63;45.70;;;;;;;-144.87;100.00;61487.56;4969466;28;20054;-81
2023/03/08 04:24:35;;;;;;;87.40;49.78;;;;;;;-144.87;100.00;61487.56;4981320;28;20041;-82
2023/03/08 04:27:05;;;;;;;81.65;46.88;;;;;;;-144.87;100.00;61487.56;4965046;28;21625;-81
2023/03/08 04:29:31;;;;;;;83.40;48.33;;;;;;;-144.87;100.00;61487.56;4961714;28;20034;-82
2023/03/08 04:31:59;;;;;;;78.82;47.50;;;;;;;-144.87;100.00;61487.56;4960722;28;20113;-81
2023/03/08 04:34:30;;;;;;;82.93;49.28;;;;;;;-144.87;100.00;61487.56;4978018;28;20049;-81
2023/03/08 04:36:57;;;;;;;79.40;47.35;;;;;;;-144.87;100.00;61487.56;4968637;28;20088;-83
2023/03/08 04:39:24;;;;;;;83.82;50.15;;;;;;;-144.87;100.00;61487.56;4963275;28;20072;-82
2023/03/08 04:41:50;;;;;;;88.28;51.15;;;;;;;-144.87;100.00;61487.56;4969019;28;20335;-81
2023/03/08 04:44:26;;;;;;;83.00;50.00;;;;;;;-144.87;100.00;61487.56;4966297;28;20068;-81
2023/03/08 04:46:53;;;;;;;84.18;50.33;;;;;;;-144.87;100.00;61487.56;4970633;28;20034;-81
2023/03/08 04:49:27;;;;;;;89.90;50.75;;;;;;;-144.87;100.00;61487.56;4967168;28;20042;-82
2023/03/08 04:51:58;;;;;;;96.03;52.70;;;;;;;-144.87;100.00;61487.56;4958724;28;20508;-82
2023/03/08 04:54:26;;;;;;;93.80;51.85;;;;;;;-144.87;100.00;61487.56;4961934;28;20039;-81
2023/03/08 04:56:58;;;;;;;88.13;51.80;;;;;;;-144.87;100.00;61487.56;4966023;28;20041;-81
2023/03/08 04:59:26;;;;;;;89.95;52.25;;;;;;;-144.87;100.00;61487.56;4969549;28;20035;-80
2023/03/08 05:01:55;;;;;;;69.10;39.60;;;;;;;-144.87;100.00;61487.56;4992394;28;20045;-81
2023/03/08 05:04:22;;;;;;;99.95;54.70;;;;;;;-144.87;100.00;61487.56;4980582;28;20472;-81
2023/03/08 05:06:49;;;;;;;111.53;60.55;;;;;;;-144.87;100.00;61487.56;4970644;28;20031;-81
2023/03/08 05:09:20;;;;;;;105.93;58.28;;;;;;;-144.87;100.00;61487.56;4977048;28;20420;-81
2023/03/08 05:11:49;;;;;;;119.38;61.10;;;;;;;-144.87;100.00;61487.56;4982238;28;20045;-81
2023/03/08 05:14:17;;;;;;;122.15;61.58;;;;;;;-144.87;100.00;61487.56;4961760;28;20046;-81
2023/03/08 05:16:43;;;;;;;194.63;65.32;;;;;;;-144.87;100.00;61487.56;4962171;28;20077;-81
2023/03/08 05:19:10;;;;;;;242.27;72.38;;;;;;;-144.87;100.00;61487.56;4952590;28;20112;-81
2023/03/08 05:21:44;;;;;;;435.00;79.78;;;;;;;-144.87;100.00;61487.56;4953196;28;20035;-81
2023/03/08 05:24:10;;;;;;;438.17;79.65;;;;;;;-144.87;100.00;61487.56;4974360;28;20038;-82
2023/03/08 05:26:38;;;;;;;475.52;84.65;;;;;;;-144.87;100.00;61487.56;4964555;28;21292;-81
2023/03/08 05:29:05;;;;;;;486.75;84.28;;;;;;;-144.87;100.00;61487.56;4957813;28;20134;-81
2023/03/08 05:31:33;;;;;;;381.70;81.07;;;;;;;-144.87;100.00;61487.56;4976935;28;20035;-81
2023/03/08 05:34:03;;;;;;;;;;;;;;;-144.87;100.00;61487.56;4977184;28;20034;-81
2023/03/08 05:36:36;;;;;;;602.72;91.53;;;;;;;-144.87;100.00;61487.56;4976071;28;19918;-82
2023/03/08 05:39:05;;;;;;;668.83;93.85;;;;;;;-144.87;100.00;61487.56;4960384;28;20035;-82
2023/03/08 05:41:40;;;;;;;372.60;84.10;;;;;;;-144.87;100.00;61487.56;4965229;28;20027;-81
2023/03/08 05:44:07;;;;;;;609.50;95.97;;;;;;;-144.87;100.00;61487.56;4966926;28;20109;-82
2023/03/08 05:46:37;;;;;;;384.33;85.60;;;;;;;-144.87;100.00;61487.56;4977317;28;20031;-79
2023/03/08 05:49:04;;;;;;;328.75;87.65;;;;;;;-144.87;100.00;61487.56;4976032;28;20034;-83
2023/03/08 05:51:33;;;;;;;296.83;84.72;;;;;;;-144.87;100.00;61487.56;4970633;28;20026;-79
2023/03/08 05:54:00;;;;;;;410.63;90.43;;;;;;;-144.87;100.00;61487.56;4973673;28;20560;-80
2023/03/08 05:56:27;;;;;;;394.40;92.55;;;;;;;-144.87;100.00;61487.56;4976289;28;20034;-80
2023/03/08 05:59:00;;;;;;;429.15;91.40;;;;;;;-144.87;100.00;61487.56;4976036;28;20120;-80
2023/03/08 06:01:28;;;;;;;378.17;88.07;;;;;;;-144.87;100.00;61487.56;4976384;28;20065;-80
2023/03/08 06:04:00;;;;;;;378.70;89.13;;;;;;;-144.87;100.00;61487.56;4959529;28;20504;-80
2023/03/08 06:06:30;;;;;;;330.20;66.95;;;;;;;-144.87;100.00;61487.56;4978715;28;20030;-80
2023/03/08 06:09:00;;;;;;;340.42;85.25;;;;;;;-144.87;100.00;61487.56;4962611;28;20030;-80
2023/03/08 06:11:26;;;;;;;303.40;85.03;;;;;;;-144.87;100.00;61487.56;4973309;28;20603;-80
2023/03/08 06:13:55;;;;;;;371.30;84.40;;;;;;;-144.87;100.00;61487.56;4961411;28;20041;-80
2023/03/08 06:16:23;;;;;;;377.48;90.90;;;;;;;-144.87;100.00;61487.56;4971851;28;20141;-80
2023/03/08 06:18:49;;;;;;;348.90;88.82;;;;;;;-144.87;100.00;61487.56;4967784;28;20037;-80
2023/03/08 06:21:19;;;;;;;424.98;87.07;;;;;;;-144.87;100.00;61487.56;4976490;28;20121;-80
2023/03/08 06:23:49;;;;;;;446.38;93.43;;;;;;;-144.87;100.00;61487.56;4994954;28;20030;-79
2023/03/08 06:26:16;;;;;;;405.15;87.82;;;;;;;-144.87;100.00;61487.56;4978282;28;20085;-79
2023/03/08 06:28:43;;;;;;;386.17;89.70;;;;;;;-144.87;100.00;61487.56;4976464;28;20129;-80
2023/03/08 06:31:13;;;;;;;508.42;98.93;;;;;;;-144.87;100.00;61487.56;4959168;28;20039;-81
2023/03/08 06:33:40;;;;;;;318.80;91.90;;;;;;;-144.87;100.00;61487.56;4974835;28;20137;-81
2023/03/08 06:36:19;;;;;;;405.33;92.95;;;;;;;-144.87;100.00;61487.56;4960562;28;20043;-81
2023/03/08 06:38:47;;;;;;;378.13;92.57;;;;;;;-144.87;100.00;61487.56;4971705;28;20433;-81
2023/03/08 06:41:15;;;;;;;313.77;94.13;;;;;;;-144.87;100.00;61487.56;4971049;28;20030;-80
2023/03/08 06:43:43;;;;;;;293.40;89.90;;;;;;;-144.87;100.00;61487.56;4973547;28;20030;-82
2023/03/08 06:46:15;;;;;;;311.02;91.57;;;;;;;-144.87;100.00;61487.56;4979369;28;20042;-82
2023/03/08 06:48:42;;;;;;;305.48;95.60;;;;;;;-144.87;100.00;61487.56;4962631;28;20034;-84
2023/03/08 06:51:09;;;;;;;287.42;92.38;;;;;;;-144.87;100.00;61487.56;4974838;28;20105;-81
2023/03/08 06:53:37;;;;;;;304.95;92.55;;;;;;;-144.87;100.00;61487.56;4960856;28;20031;-81
2023/03/08 06:56:06;;;;;;;289.65;91.93;;;;;;;-144.87;100.00;61487.56;4958542;28;20034;-82
2023/03/08 06:58:34;;;;;;;294.27;95.53;;;;;;;-144.87;100.00;61487.56;4978415;28;20043;-81
2023/03/08 07:01:03;;;;;;;283.00;92.53;;;;;;;-144.87;100.00;61487.56;4991260;28;20244;-80
2023/03/08 07:03:30;;;;;;;264.67;93.53;;;;;;;-144.87;100.00;61487.56;4974190;28;20050;-81
2023/03/08 07:06:03;;;;;;;271.98;89.50;;;;;;;-144.87;100.00;61487.56;4972936;28;20122;-80
2023/03/08 07:08:30;;;;;;;253.88;87.63;;;;;;;-144.87;100.00;61487.56;4977434;28;20564;-81
2023/03/08 07:11:00;;;;;;;258.85;88.50;;;;;;;-144.87;100.00;61487.56;4983105;28;20125;-79
2023/03/08 07:13:27;;;;;;;259.10;89.13;;;;;;;-144.87;100.00;61487.56;4974070;28;20143;-80
2023/03/08 07:15:54;;;;;;;256.27;88.78;;;;;;;-144.87;100.00;61487.56;4973548;28;20114;-81
2023/03/08 07:18:20;;;;;;;249.40;87.65;;;;;;;-144.87;100.00;61487.56;4983683;28;20117;-81
2023/03/08 07:20:56;;;;;;;219.13;81.43;;;;;;;-144.87;100.00;61487.56;4973111;28;20035;-80
2023/03/08 07:23:23;;;;;;;224.98;87.18;;;;;;;-144.87;100.00;61487.56;4980696;28;20488;-81
2023/03/08 07:25:49;;;;;;;254.88;88.07;;;;;;;-144.87;100.00;61487.56;4975202;28;20039;-80
2023/03/08 07:28:16;;;;;;;233.25;82.90;;;;;;;-144.87;100.00;61487.56;4988943;28;20113;-80
2023/03/08 07:30:47;;;;;;;247.50;89.90;;;;;;;-144.87;100.00;61487.56;4990589;28;20034;-81
2023/03/08 07:33:14;;;;;;;231.07;86.50;;;;;;;-144.87;100.00;61487.56;4984833;28;20045;-80
2023/03/08 07:35:40;;;;;;;229.57;88.10;;;;;;;-144.87;100.00;61487.56;4970737;28;20385;-80
2023/03/08 07:38:06;;;;;;;237.63;84.72;;;;;;;-144.87;100.00;61487.56;4953910;28;20043;-79
2023/03/08 07:40:33;;;;;;;236.23;85.82;;;;;;;-144.87;100.00;61487.56;4970528;28;20046;-82
2023/03/08 07:42:59;;;;;;;228.75;83.22;;;;;;;-144.87;100.00;61487.56;4986210;28;20034;-81
2023/03/08 07:46:04;;;;;;;239.45;87.53;;;;;;;-144.87;100.00;61487.56;4971039;28;20058;-80
2023/03/08 07:48:31;;;;;;;212.35;79.55;;;;;;;-144.87;100.00;61487.56;4989333;28;20042;-80
2023/03/08 07:51:07;;;;;;;222.60;82.35;;;;;;;-144.87;100.00;61487.56;4970917;28;20031;-80
2023/03/08 07:53:34;;;;;;;224.60;81.45;;;;;;;-144.87;100.00;61487.56;4975517;28;20032;-80
2023/03/08 07:56:01;;;;;;;216.63;80.47;;;;;;;-144.87;100.00;61487.56;4973231;28;20093;-80
2023/03/08 07:58:28;;;;;;;217.48;79.90;;;;;;;-144.87;100.00;61487.56;4972572;28;20042;-80
2023/03/08 08:00:54;;;;;;;225.05;83.38;;;;;;;-144.87;100.00;61487.56;4973570;28;20127;-81
2023/03/08 08:03:20;;;;;;;241.70;86.63;;;;;;;-144.87;100.00;61487.56;4974525;28;20031;-80
2023/03/08 08:05:47;;;;;;;230.18;84.40;;;;;;;-144.87;100.00;61487.56;4973586;28;20543;-80
2023/03/08 08:08:13;;;;;;;226.18;86.70;;;;;;;-144.87;100.00;61487.56;4993804;28;20523;-81
2023/03/08 08:10:40;;;;;;;218.20;81.80;;;;;;;-144.87;100.00;61487.56;4974534;28;20049;-81
2023/03/08 08:13:07;;;;;;;208.07;78.72;;;;;;;-144.87;100.00;61487.56;4976201;28;20045;-81
2023/03/08 08:15:33;;;;;;;192.68;73.72;;;;;;;-144.87;100.00;61487.56;4993600;28;20105;-80
2023/03/08 08:17:59;;;;;;;198.10;77.38;;;;;;;-144.87;100.00;61487.56;4993557;28;20034;-80
2023/03/08 08:20:26;;;;;;;213.20;81.22;;;;;;;-144.87;100.00;61487.56;4964937;28;20457;-80
2023/03/08 08:22:55;;;;;;;216.82;83.10;;;;;;;-144.87;100.00;61487.56;4972859;28;20317;-80
2023/03/08 08:25:21;;;;;;;192.85;78.05;;;;;;;-144.87;100.00;61487.56;4956314;28;20038;-80
2023/03/08 08:27:48;;;;;;;198.93;78.35;;;;;;;-144.87;100.00;61487.56;4976366;28;20041;-80
2023/03/08 08:30:15;;;;;;;193.95;75.82;;;;;;;-144.87;100.00;61487.56;4992084;28;20042;-81
2023/03/08 08:32:41;;;;;;;186.52;73.55;;;;;;;-144.87;100.00;61487.56;4977997;28;20117;-80
2023/03/08 08:35:08;;;;;;;186.90;75.25;;;;;;;-144.87;100.00;61487.56;4972123;28;20038;-81
2023/03/08 08:37:35;;;;;;;191.85;73.80;;;;;;;-144.87;100.00;61487.56;4972160;28;20038;-81
2023/03/08 08:40:02;;;;;;;176.98;72.43;;;;;;;-144.87;100.00;61487.56;4972595;28;20041;-81
2023/03/08 08:42:28;;;;;;;185.27;69.95;;;;;;;-144.87;100.00;61487.56;4972745;28;20037;-81
2023/03/08 08:44:55;;;;;;;182.65;72.43;;;;;;;-144.87;100.00;61487.56;4975912;28;20387;-81
2023/03/08 08:47:22;;;;;;;180.25;70.95;;;;;;;-144.87;100.00;61487.56;4988704;28;20527;-80
2023/03/08 08:49:48;;;;;;;193.27;72.50;;;;;;;-144.87;100.00;61487.56;4991469;28;20101;-80
2023/03/08 08:52:14;;;;;;;202.13;74.97;;;;;;;-144.87;100.00;61487.56;4992026;28;20503;-81
2023/03/08 08:54:41;;;;;;;193.73;71.15;;;;;;;-144.87;100.00;61487.56;4991869;28;20475;-80
2023/03/08 08:57:07;;;;;;;196.88;72.75;;;;;;;-144.87;100.00;61487.56;4974474;28;20078;-81
2023/03/08 08:59:33;;;;;;;195.48;70.18;;;;;;;-144.87;100.00;61487.56;4972740;28;20559;-80
2023/03/08 09:02:00;;;;;;;192.13;70.55;;;;;;;-144.87;100.00;61487.56;4971727;28;20467;-79
2023/03/08 09:04:26;;;;;;;167.27;66.22;;;;;;;-144.87;100.00;61487.56;4991479;28;20034;-80
2023/03/08 09:06:53;;;;;;;196.60;68.10;;;;;;;-144.87;100.00;61487.56;4976021;28;20064;-80
2023/03/08 09:09:19;;;;;;;192.80;65.85;;;;;;;-144.87;100.00;61487.56;4993881;28;20046;-80
2023/03/08 09:11:47;;;;;;;182.05;66.53;;;;;;;-144.87;100.00;61487.56;4978771;28;20039;-80
2023/03/08 09:14:13;;;;;;;181.55;65.60;;;;;;;-144.87;100.00;61487.56;4972990;28;20035;-81
2023/03/08 09:16:39;;;;;;;189.88;67.38;;;;;;;-144.87;100.00;61487.56;4990478;28;20034;-79
2023/03/08 09:19:06;;;;;;;182.50;67.03;;;;;;;-144.87;100.00;61487.56;4991691;28;20034;-81
2023/03/08 09:21:33;;;;;;;187.32;66.68;;;;;;;-144.87;100.00;61487.56;4980985;28;20492;-77
2023/03/08 09:24:02;;;;;;;193.85;68.35;;;;;;;-144.87;100.00;61487.56;4972049;28;20433;-81
2023/03/08 09:26:29;;;;;;;188.27;64.10;;;;;;;-144.87;100.00;61487.56;4972858;28;20516;-81
2023/03/08 09:28:57;;;;;;;183.05;60.97;;;;;;;-144.87;100.00;61487.56;4965951;28;20130;-81
2023/03/08 09:31:23;;;;;;;191.07;66.07;;;;;;;-144.87;100.00;61487.56;4971480;28;20091;-81
2023/03/08 09:33:50;;;;;;;192.68;65.63;;;;;;;-144.87;100.00;61487.56;4970980;28;20049;-81
2023/03/08 09:36:17;;;;;;;201.27;68.10;;;;;;;-144.87;100.00;61487.56;4971007;28;20105;-81
2023/03/08 09:38:45;;;;;;;207.68;67.85;;;;;;;-144.87;100.00;61487.56;4975332;28;20443;-81
2023/03/08 09:41:32;;;;;;;189.98;65.32;;;;;;;-144.87;100.00;61487.56;4984114;28;20148;-81
2023/03/08 09:44:42;;;;;;;196.32;63.17;;;;;;;-144.87;100.00;61487.56;4990739;28;20069;-82
2023/03/08 09:47:45;;;;;;;183.13;63.17;;;;;;;-144.87;100.00;61487.56;4990260;28;20041;-81
2023/03/08 09:50:11;;;;;;;186.60;61.70;;;;;;;-144.87;100.00;61487.56;4969231;28;20050;-81
2023/03/08 09:52:59;;;;;;;179.60;62.38;;;;;;;-144.87;100.00;61487.56;4985288;28;20039;-81
2023/03/08 09:55:31;;;;;;;158.77;59.95;;;;;;;-144.87;100.00;61487.56;4978437;28;20084;-81
2023/03/08 09:58:22;;;;;;;149.00;54.58;;;;;;;-144.87;100.00;61487.56;4974288;28;20070;-82
2023/03/08 10:00:48;;;;;;;147.77;53.05;;;;;;;-144.87;100.00;61487.56;4959470;28;20515;-82
2023/03/08 10:03:49;;;;;;;136.60;50.00;;;;;;;-144.87;100.00;61487.56;4990512;28;20078;-81
2023/03/08 10:06:35;;;;;;;154.70;55.10;;;;;;;-144.87;100.00;61487.56;4990852;28;20054;-81
2023/03/08 10:09:07;;;;;;;145.75;52.97;;;;;;;-144.87;100.00;61487.56;4973849;28;20034;-82
2023/03/08 10:11:45;;;;;;;133.15;52.08;;;;;;;-144.87;100.00;61487.56;4971439;28;20037;-81
2023/03/08 10:14:24;;;;;;;125.47;51.78;;;;;;;-144.87;100.00;61487.56;4974265;28;20045;-81
2023/03/08 10:16:55;;;;;;;114.75;46.40;;;;;;;-144.87;100.00;61487.56;4990327;28;20518;-81
2023/03/08 10:19:32;;;;;;;104.43;42.35;;;;;;;-144.87;100.00;61487.56;4974345;28;20042;-82
2023/03/08 10:22:05;;;;;;;93.22;40.25;;;;;;;-144.87;100.00;61487.56;4991516;28;20042;-80
2023/03/08 10:24:44;;;;;;;78.50;35.30;;;;;;;-144.87;100.00;61487.56;4991039;28;20043;-80
2023/03/08 10:27:33;;;;;;;85.53;36.90;;;;;;;-144.87;100.00;61487.56;4974054;28;20133;-79
2023/03/08 10:30:10;;;;;;;75.93;35.28;;;;;;;-144.87;100.00;61487.56;4958534;28;20193;-80
2023/03/08 10:32:43;;;;;;;73.60;32.15;;;;;;;-144.87;100.00;61487.56;4975508;28;20039;-81
2023/03/08 10:35:09;;;;;;;67.47;31.85;;;;;;;-144.87;100.00;61487.56;4978370;28;20030;-80
2023/03/08 10:37:35;;;;;;;66.95;30.05;;;;;;;-144.87;100.00;61487.56;4982781;28;20112;-81
2023/03/08 10:40:14;;;;;;;63.20;30.08;;;;;;;-144.87;100.00;61487.56;4973148;28;20038;-80
2023/03/08 10:42:46;;;;;;;56.30;27.45;;;;;;;-144.87;100.00;61487.56;4973738;28;20049;-80
2023/03/08 10:45:20;;;;;;;62.00;30.30;;;;;;;-144.87;100.00;61487.56;4970159;28;20464;-80
2023/03/08 10:48:04;;;;;;;59.70;27.95;;;;;;;-144.87;100.00;61487.56;4970386;28;20097;-80
2023/03/08 10:50:34;;;;;;;55.97;27.02;;;;;;;-144.87;100.00;61487.56;4970253;28;20063;-80
2023/03/08 10:53:17;;;;;;;50.80;25.05;;;;;;;-144.87;100.00;61487.56;4975482;28;20141;-80
2023/03/08 10:55:47;;;;;;;52.65;25.70;;;;;;;-144.87;100.00;61487.56;4969706;28;20039;-81
2023/03/08 10:58:29;;;;;;;48.70;25.83;;;;;;;-144.87;100.00;61487.56;4972294;28;20114;-81
2023/03/08 11:00:56;;;;;;;49.53;25.33;;;;;;;-144.87;100.00;61487.56;4989903;28;20076;-79
2023/03/08 11:03:24;;;;;;;47.85;24.35;;;;;;;-144.87;100.00;61487.56;4988816;28;20073;-80